Time;durP1;ratioP1;P1;durP2;ratioP2;P2;SDS_P1;SDS_P2;PMS_P1;PMS_P2;Temp;Humidity;BMP_temperature;BMP_pressure;BME280_temperature;BME280_humidity;BME280_pressure;Samples;Min_cycle;Max_cycle;Signal;HPM_P1;HPM_P2
2024/04/03 04:09:18;;;;;;;0.30;0.30;;;8.80;99.90;;;;;;4842587;29;20635;-60
2024/04/03 04:11:45;;;;;;;0.30;0.30;;;8.70;99.90;;;;;;4845480;29;20188;-58
2024/04/03 04:14:10;;;;;;;0.35;0.35;;;8.70;99.90;;;;;;4845136;29;20524;-59
2024/04/03 04:16:36;;;;;;;0.30;0.30;;;8.70;99.90;;;;;;4844982;29;20209;-59
2024/04/03 04:19:01;;;;;;;0.30;0.30;;;8.60;99.90;;;;;;4845213;29;20582;-60
2024/04/03 04:21:27;;;;;;;0.33;0.33;;;8.60;99.90;;;;;;4844860;29;20181;-59
2024/04/03 04:23:53;;;;;;;0.40;0.40;;;8.70;99.90;;;;;;4859037;29;20666;-59
2024/04/03 04:26:19;;;;;;;0.40;0.40;;;8.70;99.90;;;;;;4844829;29;20185;-59
2024/04/03 04:28:44;;;;;;;0.40;0.40;;;8.70;99.90;;;;;;4845313;29;20716;-60
2024/04/03 04:31:10;;;;;;;0.30;0.30;;;8.80;99.90;;;;;;4844783;29;20188;-60
2024/04/03 04:33:37;;;;;;;0.40;0.40;;;8.80;99.90;;;;;;4844648;29;20540;-59
2024/04/03 04:36:03;;;;;;;0.30;0.30;;;8.80;99.90;;;;;;4843089;29;20188;-58
2024/04/03 04:38:29;;;;;;;0.38;0.38;;;8.80;99.90;;;;;;4858340;29;20695;-58
2024/04/03 04:40:59;;;;;;;0.30;0.30;;;8.80;99.90;;;;;;4844489;29;20176;-58
2024/04/03 04:43:29;;;;;;;0.30;0.30;;;8.80;99.90;;;;;;4844787;29;20516;-59
2024/04/03 04:46:13;;;;;;;0.30;0.30;;;8.80;99.90;;;;;;4844079;29;20181;-59
2024/04/03 04:48:38;;;;;;;0.40;0.40;;;8.70;99.90;;;;;;4844664;29;20192;-60
2024/04/03 04:51:05;;;;;;;0.30;0.30;;;8.80;99.90;;;;;;4844305;29;20177;-59
2024/04/03 04:53:31;;;;;;;0.40;0.40;;;8.70;99.90;;;;;;4844447;29;20267;-59
2024/04/03 04:56:04;;;;;;;0.40;0.40;;;8.70;99.90;;;;;;4844163;29;20310;-59
2024/04/03 04:58:30;;;;;;;0.38;0.38;;;8.70;99.90;;;;;;4844432;29;20460;-59
2024/04/03 05:01:03;;;;;;;0.30;0.30;;;8.70;99.90;;;;;;4844517;29;20694;-59
2024/04/03 05:03:29;;;;;;;0.30;0.30;;;8.70;99.90;;;;;;4844502;29;20178;-60
2024/04/03 05:05:55;;;;;;;0.30;0.30;;;8.70;99.90;;;;;;4843884;29;20181;-60
2024/04/03 05:08:20;;;;;;;0.30;0.30;;;8.70;99.90;;;;;;4844092;29;20940;-59
2024/04/03 05:10:56;;;;;;;0.30;0.30;;;8.70;99.90;;;;;;4844301;29;20420;-59
2024/04/03 05:13:23;;;;;;;0.30;0.30;;;8.70;99.90;;;;;;4844298;29;20186;-59
2024/04/03 05:15:49;;;;;;;0.30;0.30;;;8.70;99.90;;;;;;4843839;29;20177;-59
2024/04/03 05:18:15;;;;;;;0.40;0.40;;;8.70;99.90;;;;;;4854767;29;20253;-59
2024/04/03 05:20:41;;;;;;;0.40;0.40;;;8.80;99.90;;;;;;4843189;29;20185;-59
2024/04/03 05:23:07;;;;;;;0.30;0.30;;;8.80;99.90;;;;;;4851426;29;20180;-59
2024/04/03 05:25:33;;;;;;;0.40;0.40;;;8.90;99.90;;;;;;4861886;29;20184;-59
2024/04/03 05:27:58;;;;;;;0.30;0.30;;;9.00;99.90;;;;;;4862275;29;20294;-59
2024/04/03 05:30:24;;;;;;;0.30;0.30;;;9.20;99.90;;;;;;4859745;29;20989;-59
2024/04/03 05:32:50;;;;;;;0.40;0.40;;;9.30;99.90;;;;;;4843750;29;20177;-59
2024/04/03 05:35:17;;;;;;;0.30;0.30;;;9.40;99.90;;;;;;4850946;29;20544;-59
2024/04/03 05:37:46;;;;;;;0.30;0.30;;;9.50;99.90;;;;;;4843878;29;20205;-59
2024/04/03 05:40:12;;;;;;;0.40;0.40;;;9.70;99.90;;;;;;4843576;29;20243;-59
2024/04/03 05:42:37;;;;;;;0.40;0.40;;;9.80;99.90;;;;;;4843710;29;20174;-59
2024/04/03 05:45:03;;;;;;;0.37;0.37;;;9.90;99.90;;;;;;4842930;29;20195;-59
2024/04/03 05:47:30;;;;;;;0.30;0.30;;;9.90;99.90;;;;;;4843675;29;20216;-59
2024/04/03 05:49:56;;;;;;;0.30;0.30;;;10.00;99.90;;;;;;4843635;29;20276;-59
2024/04/03 05:52:22;;;;;;;0.30;0.30;;;10.00;99.90;;;;;;4843410;29;20317;-60
2024/04/03 05:54:48;;;;;;;0.30;0.30;;;10.10;99.90;;;;;;4843109;29;20408;-60
2024/04/03 05:57:17;;;;;;;0.30;0.30;;;10.20;99.90;;;;;;4842862;29;20203;-58
2024/04/03 05:59:42;;;;;;;0.30;0.30;;;10.30;99.90;;;;;;4843286;29;20430;-59
2024/04/03 06:02:08;;;;;;;0.30;0.30;;;10.40;99.90;;;;;;4843300;29;20222;-59
2024/04/03 06:04:34;;;;;;;0.30;0.30;;;10.40;99.90;;;;;;4843005;29;20726;-59
2024/04/03 06:07:00;;;;;;;0.30;0.30;;;10.50;99.90;;;;;;4847719;29;20538;-59
2024/04/03 06:09:26;;;;;;;0.30;0.30;;;10.60;99.60;;;;;;4854936;29;20196;-59
2024/04/03 06:11:51;;;;;;;0.30;0.30;;;10.70;99.30;;;;;;4860820;29;20404;-60
2024/04/03 06:14:17;;;;;;;0.30;0.30;;;10.80;99.40;;;;;;4858608;29;20234;-60
2024/04/03 06:16:42;;;;;;;0.30;0.30;;;10.80;99.00;;;;;;4859179;29;20191;-59
2024/04/03 06:19:12;;;;;;;0.30;0.30;;;10.90;98.10;;;;;;4859525;29;20705;-60
2024/04/03 06:21:38;;;;;;;0.30;0.30;;;11.10;97.90;;;;;;4859459;29;20214;-59
2024/04/03 06:24:05;;;;;;;0.30;0.30;;;11.20;98.20;;;;;;4859317;29;20447;-60
2024/04/03 06:26:32;;;;;;;0.30;0.30;;;11.20;99.70;;;;;;4859230;29;20438;-60
2024/04/03 06:28:59;;;;;;;0.30;0.30;;;11.20;99.90;;;;;;4861242;29;20431;-59
2024/04/03 06:31:26;;;;;;;0.30;0.30;;;11.20;99.90;;;;;;4861378;29;20436;-59
2024/04/03 06:33:52;;;;;;;0.33;0.33;;;11.00;99.90;;;;;;4861382;29;20412;-59
2024/04/03 06:36:18;;;;;;;0.30;0.30;;;10.90;99.90;;;;;;4860851;29;20414;-59
2024/04/03 06:38:44;;;;;;;0.30;0.30;;;10.90;99.90;;;;;;4861107;29;20467;-59
2024/04/03 06:41:09;;;;;;;0.30;0.30;;;10.80;99.90;;;;;;4861261;29;20223;-59
2024/04/03 06:43:35;;;;;;;0.30;0.30;;;10.80;99.90;;;;;;4861088;29;20174;-59
2024/04/03 06:46:00;;;;;;;0.30;0.30;;;10.80;99.90;;;;;;4860612;29;20175;-59
2024/04/03 06:48:26;;;;;;;0.30;0.30;;;10.80;99.90;;;;;;4860969;29;20207;-59
2024/04/03 06:50:52;;;;;;;0.30;0.30;;;10.80;99.90;;;;;;4860831;29;20266;-59
2024/04/03 06:53:19;;;;;;;0.30;0.30;;;10.90;99.90;;;;;;4860912;29;20642;-59
2024/04/03 06:55:59;;;;;;;0.30;0.30;;;11.00;99.90;;;;;;4860369;29;20423;-59
2024/04/03 06:58:26;;;;;;;0.30;0.30;;;11.10;99.90;;;;;;4860830;29;20827;-59
2024/04/03 07:00:52;;;;;;;0.30;0.30;;;11.30;99.90;;;;;;4860782;29;20527;-58
2024/04/03 07:03:17;;;;;;;0.40;0.40;;;11.40;99.90;;;;;;4860597;29;20470;-59
2024/04/03 07:05:44;;;;;;;0.50;0.50;;;11.50;99.90;;;;;;4843854;29;20283;-60
2024/04/03 07:08:13;;;;;;;0.30;0.30;;;11.50;99.90;;;;;;4860443;29;20451;-60
2024/04/03 07:10:40;;;;;;;0.30;0.30;;;11.60;99.90;;;;;;4860725;29;20432;-59
2024/04/03 07:13:06;;;;;;;0.30;0.30;;;11.60;99.90;;;;;;4860520;29;20416;-59
2024/04/03 07:15:33;;;;;;;0.30;0.30;;;11.60;99.90;;;;;;4859017;29;20423;-60
2024/04/03 07:18:01;;;;;;;0.50;0.50;;;11.60;99.90;;;;;;4860429;29;20468;-59
2024/04/03 07:20:31;;;;;;;0.30;0.30;;;11.50;99.90;;;;;;4860519;29;20428;-58
2024/04/03 07:22:58;;;;;;;0.40;0.40;;;11.50;99.90;;;;;;4860451;29;20743;-59
2024/04/03 07:25:25;;;;;;;0.30;0.30;;;11.50;99.90;;;;;;4859905;29;20420;-59
2024/04/03 07:27:51;;;;;;;0.30;0.30;;;11.40;99.90;;;;;;4859103;29;20410;-58
2024/04/03 07:30:17;;;;;;;0.30;0.30;;;11.50;99.90;;;;;;4860382;29;20399;-59
2024/04/03 07:32:43;;;;;;;0.30;0.30;;;11.50;99.90;;;;;;4860270;29;20802;-60
2024/04/03 07:35:09;;;;;;;0.30;0.30;;;11.50;99.90;;;;;;4860153;29;21054;-60
2024/04/03 07:37:39;;;;;;;0.30;0.30;;;11.60;99.90;;;;;;4860459;29;20222;-59
2024/04/03 07:40:08;;;;;;;0.30;0.30;;;11.60;99.90;;;;;;4860452;29;20191;-60
2024/04/03 07:42:36;;;;;;;0.30;0.30;;;11.60;99.90;;;;;;4860307;29;20432;-58
2024/04/03 07:45:04;;;;;;;0.30;0.30;;;11.70;99.90;;;;;;4863567;29;20836;-61
2024/04/03 07:47:33;;;;;;;0.30;0.30;;;11.80;99.90;;;;;;4863792;29;20456;-60
2024/04/03 07:50:00;;;;;;;0.30;0.30;;;11.90;99.90;;;;;;4847084;29;20459;-60
2024/04/03 07:52:26;;;;;;;0.30;0.30;;;12.10;99.90;;;;;;4863739;29;20906;-60
2024/04/03 07:54:52;;;;;;;0.30;0.30;;;12.20;99.90;;;;;;4862482;29;20402;-60
2024/04/03 07:57:17;;;;;;;0.30;0.30;;;12.30;99.90;;;;;;4863859;29;20204;-60
2024/04/03 07:59:44;;;;;;;0.30;0.30;;;12.50;99.90;;;;;;4863669;29;20384;-60
2024/04/03 08:02:09;;;;;;;0.40;0.40;;;12.60;99.90;;;;;;4863647;29;20180;-60
2024/04/03 08:04:36;;;;;;;0.30;0.30;;;12.80;99.90;;;;;;4863319;29;20467;-60
2024/04/03 08:07:02;;;;;;;0.30;0.30;;;13.00;99.90;;;;;;4863345;29;20230;-59
2024/04/03 08:09:34;;;;;;;0.30;0.30;;;13.10;99.90;;;;;;4863666;29;20520;-59
2024/04/03 08:12:01;;;;;;;0.30;0.30;;;13.20;99.70;;;;;;4863435;29;20429;-59
2024/04/03 08:14:27;;;;;;;0.30;0.30;;;13.30;99.60;;;;;;4863463;29;20392;-60
2024/04/03 08:16:54;;;;;;;0.30;0.30;;;13.40;98.90;;;;;;4863120;29;20440;-60
2024/04/03 08:19:22;;;;;;;0.30;0.30;;;13.50;99.80;;;;;;4863111;29;20500;-60
2024/04/03 08:21:48;;;;;;;0.30;0.30;;;13.60;99.10;;;;;;4863298;29;20429;-60
2024/04/03 08:24:14;;;;;;;0.93;0.93;;;13.70;98.70;;;;;;4863062;29;20414;-60
2024/04/03 08:26:40;;;;;;;0.30;0.30;;;13.80;98.40;;;;;;4863013;29;20177;-58
2024/04/03 08:29:05;;;;;;;0.30;0.30;;;13.80;98.10;;;;;;4863163;29;20414;-60
2024/04/03 08:31:31;;;;;;;0.30;0.30;;;13.90;98.10;;;;;;4863231;29;20250;-58
2024/04/03 08:33:59;;;;;;;0.30;0.30;;;14.00;98.10;;;;;;4863402;29;20216;-60
2024/04/03 08:36:25;;;;;;;0.30;0.30;;;14.20;98.30;;;;;;4862860;29;20543;-60
2024/04/03 08:38:51;;;;;;;0.30;0.30;;;14.30;98.00;;;;;;4862679;29;20469;-60
2024/04/03 08:41:16;;;;;;;0.40;0.40;;;14.50;97.60;;;;;;4863168;29;20179;-60
2024/04/03 08:43:42;;;;;;;0.30;0.30;;;14.60;97.80;;;;;;4862993;29;20412;-60
2024/04/03 08:46:11;;;;;;;0.30;0.30;;;14.80;97.90;;;;;;4862707;29;20571;-60
2024/04/03 08:48:39;;;;;;;0.30;0.30;;;15.10;97.40;;;;;;4862776;29;20207;-60
2024/04/03 08:51:06;;;;;;;0.30;0.30;;;15.40;95.40;;;;;;4862875;29;20403;-60
2024/04/03 08:53:32;;;;;;;0.30;0.30;;;15.60;95.70;;;;;;4862845;29;20424;-60
2024/04/03 08:55:59;;;;;;;0.30;0.30;;;15.70;94.80;;;;;;4876606;29;20425;-60
2024/04/03 08:58:25;;;;;;;0.30;0.23;;;15.90;94.30;;;;;;4862491;29;20459;-60
2024/04/03 09:00:52;;;;;;;0.30;0.30;;;16.00;93.70;;;;;;4862723;29;20822;-60
2024/04/03 09:03:19;;;;;;;0.30;0.30;;;16.10;93.40;;;;;;4861288;29;20392;-60
2024/04/03 09:05:46;;;;;;;0.30;0.30;;;16.20;93.90;;;;;;4862357;29;20421;-60
2024/04/03 09:08:12;;;;;;;0.30;0.30;;;16.30;93.20;;;;;;4862353;29;20449;-60
2024/04/03 09:10:47;;;;;;;0.30;0.30;;;16.30;92.80;;;;;;4862664;29;20395;-60
2024/04/03 09:13:13;;;;;;;0.30;0.30;;;16.30;92.70;;;;;;4862247;29;20448;-60
2024/04/03 09:15:39;;;;;;;0.30;0.30;;;16.20;92.40;;;;;;4862202;29;20413;-60
2024/04/03 09:18:14;;;;;;;0.30;0.30;;;16.10;92.60;;;;;;4862259;29;20557;-60
2024/04/03 09:20:41;;;;;;;0.30;0.30;;;16.00;93.00;;;;;;4862531;29;20416;-60
2024/04/03 09:23:09;;;;;;;0.30;0.30;;;15.90;92.90;;;;;;4862261;29;20413;-60
2024/04/03 09:25:36;;;;;;;0.80;0.80;;;15.90;93.00;;;;;;4861840;29;20420;-60
2024/04/03 09:28:04;;;;;;;0.30;0.30;;;15.80;93.00;;;;;;4861889;29;20441;-60
2024/04/03 09:30:30;;;;;;;0.30;0.20;;;15.80;92.80;;;;;;4862172;29;20501;-60
2024/04/03 09:33:03;;;;;;;0.30;0.30;;;15.70;92.60;;;;;;4862302;29;20399;-60
2024/04/03 09:35:35;;;;;;;0.30;0.30;;;15.70;93.10;;;;;;4861806;29;20403;-60
2024/04/03 09:38:01;;;;;;;0.30;0.30;;;15.70;93.10;;;;;;4876193;29;20450;-60
2024/04/03 09:40:28;;;;;;;0.30;0.30;;;15.70;93.30;;;;;;4862056;29;20454;-60
2024/04/03 09:43:01;;;;;;;0.30;0.30;;;16.00;93.40;;;;;;4861828;29;20487;-60
2024/04/03 09:45:28;;;;;;;0.30;0.30;;;16.40;93.60;;;;;;4861653;29;20492;-60
2024/04/03 09:48:03;;;;;;;0.30;0.30;;;16.90;93.30;;;;;;4851649;29;20537;-60
2024/04/03 09:50:44;;;;;;;0.30;0.20;;;17.50;92.10;;;;;;4842976;29;20497;-60
2024/04/03 09:53:21;;;;;;;0.30;0.30;;;18.00;90.70;;;;;;4825815;29;20522;-60
2024/04/03 09:55:50;;;;;;;0.30;0.30;;;18.60;89.50;;;;;;4834008;29;20416;-60
2024/04/03 09:58:19;;;;;;;0.30;0.30;;;19.20;85.90;;;;;;4842627;29;20436;-60
2024/04/03 10:00:56;;;;;;;0.30;0.30;;;19.70;83.90;;;;;;4842602;29;20430;-60
2024/04/03 10:03:26;;;;;;;0.30;0.30;;;20.50;84.80;;;;;;4843013;29;20424;-60
2024/04/03 10:06:09;;;;;;;0.30;0.30;;;21.70;82.80;;;;;;4842606;29;20414;-60
2024/04/03 10:08:45;;;;;;;0.30;0.30;;;22.50;78.40;;;;;;4842919;29;20460;-61
2024/04/03 10:11:13;;;;;;;0.37;0.30;;;22.80;78.50;;;;;;4843216;29;20509;-60
2024/04/03 10:13:40;;;;;;;0.30;0.27;;;22.80;74.00;;;;;;4842952;29;20397;-61
2024/04/03 10:16:09;;;;;;;0.33;0.30;;;22.80;74.20;;;;;;4843007;29;20411;-61
2024/04/03 10:18:43;;;;;;;0.30;0.30;;;22.90;76.00;;;;;;4842815;29;20448;-60
2024/04/03 10:21:10;;;;;;;0.30;0.20;;;23.20;75.40;;;;;;4842420;29;20438;-59
2024/04/03 10:23:47;;;;;;;0.30;0.20;;;23.30;73.40;;;;;;4842862;29;20397;-60
2024/04/03 10:26:15;;;;;;;0.30;0.30;;;22.80;72.20;;;;;;4842524;29;20891;-61
2024/04/03 10:28:41;;;;;;;0.30;0.30;;;22.20;73.20;;;;;;4842693;29;20426;-60
2024/04/03 10:31:08;;;;;;;0.30;0.20;;;21.80;75.60;;;;;;4842925;29;20469;-61
2024/04/03 10:33:34;;;;;;;0.30;0.30;;;21.30;76.20;;;;;;4856895;29;20439;-60
2024/04/03 10:36:00;;;;;;;0.30;0.20;;;20.80;77.20;;;;;;4842307;29;20424;-60
2024/04/03 10:38:26;;;;;;;0.30;0.30;;;20.30;77.40;;;;;;4842284;29;20513;-60
2024/04/03 10:40:52;;;;;;;0.37;0.37;;;19.50;80.20;;;;;;4842496;29;20441;-60
2024/04/03 10:43:19;;;;;;;0.30;0.30;;;18.90;81.60;;;;;;4842796;29;20434;-60
2024/04/03 10:45:51;;;;;;;0.30;0.30;;;18.30;85.10;;;;;;4842432;29;20178;-60
2024/04/03 10:48:20;;;;;;;0.40;0.40;;;17.80;90.10;;;;;;4842611;29;20907;-60
2024/04/03 10:50:47;;;;;;;0.30;0.30;;;17.50;89.00;;;;;;4842761;29;20485;-60
2024/04/03 10:53:16;;;;;;;0.30;0.30;;;17.20;90.80;;;;;;4842409;29;20397;-60
2024/04/03 10:55:41;;;;;;;0.30;0.30;;;17.00;91.50;;;;;;4842380;29;20422;-60
2024/04/03 10:58:09;;;;;;;0.30;0.30;;;16.70;91.80;;;;;;4856219;29;20473;-60
2024/04/03 11:00:44;;;;;;;0.30;0.30;;;16.60;92.40;;;;;;4842562;29;20306;-60
2024/04/03 11:03:10;;;;;;;0.33;0.33;;;16.40;92.50;;;;;;4842606;29;20441;-60
2024/04/03 11:05:36;;;;;;;0.30;0.30;;;16.30;93.00;;;;;;4842116;29;20504;-60
2024/04/03 11:08:03;;;;;;;0.40;0.40;;;16.30;93.60;;;;;;4842053;29;20954;-61
2024/04/03 11:10:30;;;;;;;0.30;0.30;;;16.20;93.80;;;;;;4842448;29;20412;-60
2024/04/03 11:13:06;;;;;;;0.30;0.30;;;16.10;93.60;;;;;;4842393;29;20396;-60
2024/04/03 11:15:32;;;;;;;0.30;0.30;;;16.00;93.60;;;;;;4841705;29;20824;-60
2024/04/03 11:18:01;;;;;;;0.30;0.30;;;15.80;94.00;;;;;;4840967;29;20526;-60
2024/04/03 11:20:27;;;;;;;0.30;0.30;;;15.70;94.40;;;;;;4842102;29;20422;-60
2024/04/03 11:22:58;;;;;;;0.30;0.30;;;15.50;94.70;;;;;;4842163;29;20437;-60
2024/04/03 11:25:24;;;;;;;0.40;0.40;;;15.30;95.10;;;;;;4841949;29;20396;-60
2024/04/03 11:27:50;;;;;;;0.30;0.30;;;15.10;95.20;;;;;;4842295;29;20813;-61
2024/04/03 11:30:15;;;;;;;0.30;0.30;;;15.10;94.90;;;;;;4841930;29;20392;-61
2024/04/03 11:32:41;;;;;;;0.30;0.30;;;15.10;94.90;;;;;;4841952;29;20233;-59
2024/04/03 11:35:08;;;;;;;0.30;0.30;;;15.10;94.90;;;;;;4841648;29;20189;-60
2024/04/03 11:37:38;;;;;;;0.30;0.30;;;15.10;94.60;;;;;;4842122;29;20550;-58
2024/04/03 11:40:05;;;;;;;0.30;0.30;;;15.10;94.60;;;;;;4842074;29;20429;-60
2024/04/03 11:42:31;;;;;;;0.30;0.30;;;14.90;94.90;;;;;;4841954;29;20498;-60
2024/04/03 11:44:57;;;;;;;0.30;0.30;;;14.90;94.70;;;;;;4855584;29;20550;-61
2024/04/03 11:47:22;;;;;;;0.30;0.30;;;14.90;94.70;;;;;;4841813;29;20501;-61
2024/04/03 11:49:49;;;;;;;0.30;0.30;;;14.90;95.20;;;;;;4842005;29;20270;-61
2024/04/03 11:52:14;;;;;;;0.30;0.30;;;14.80;95.10;;;;;;4856089;29;20177;-61
2024/04/03 11:54:41;;;;;;;0.30;0.30;;;14.80;94.90;;;;;;4841730;29;20427;-61
2024/04/03 11:57:06;;;;;;;0.30;0.30;;;14.70;95.30;;;;;;4841803;29;20266;-61
2024/04/03 11:59:32;;;;;;;0.40;0.30;;;14.70;95.40;;;;;;4841157;29;20397;-61
2024/04/03 12:01:58;;;;;;;0.30;0.30;;;14.60;95.90;;;;;;4841222;29;20773;-61
2024/04/03 12:04:24;;;;;;;0.30;0.30;;;14.50;96.00;;;;;;4841424;29;20235;-61
2024/04/03 12:06:49;;;;;;;2.00;1.90;;;14.40;96.90;;;;;;4838381;29;20287;-61
2024/04/03 12:09:15;;;;;;;0.30;0.30;;;14.40;97.00;;;;;;4841211;29;20441;-61
2024/04/03 12:11:41;;;;;;;0.30;0.30;;;14.30;96.80;;;;;;4841282;29;20186;-61
2024/04/03 12:14:08;;;;;;;0.30;0.30;;;14.40;97.10;;;;;;4841221;29;20212;-60
2024/04/03 12:16:36;;;;;;;0.30;0.30;;;14.40;97.10;;;;;;4840793;29;20641;-60
2024/04/03 12:21:47;;;;;;;0.40;0.40;;;14.40;97.80;;;;;;4841164;29;20401;-60
2024/04/03 12:24:14;;;;;;;0.30;0.30;;;14.30;97.50;;;;;;4841486;29;20402;-60
2024/04/03 12:26:41;;;;;;;0.30;0.30;;;14.30;97.60;;;;;;4841306;29;20427;-60
2024/04/03 12:29:07;;;;;;;0.30;0.30;;;14.20;98.10;;;;;;4842231;29;20197;-60
2024/04/03 12:31:33;;;;;;;0.30;0.30;;;14.20;98.30;;;;;;4844991;29;20525;-60
2024/04/03 12:33:59;;;;;;;0.30;0.30;;;14.20;98.30;;;;;;4844753;29;20525;-60
2024/04/03 12:36:25;;;;;;;0.30;0.30;;;14.10;98.60;;;;;;4844460;29;20212;-60
2024/04/03 12:38:52;;;;;;;0.30;0.30;;;14.10;99.10;;;;;;4844460;29;20712;-60
2024/04/03 12:41:17;;;;;;;0.30;0.30;;;14.00;99.20;;;;;;4844204;29;20600;-60
2024/04/03 12:43:43;;;;;;;0.30;0.30;;;14.00;99.40;;;;;;4844669;29;20433;-59
2024/04/03 12:46:10;;;;;;;0.30;0.30;;;13.90;99.90;;;;;;4844206;29;20184;-59
2024/04/03 12:48:36;;;;;;;0.30;0.30;;;14.00;99.90;;;;;;4844340;29;20212;-60
2024/04/03 12:51:02;;;;;;;0.30;0.30;;;13.90;99.90;;;;;;4844676;29;20427;-60
2024/04/03 12:53:28;;;;;;;0.30;0.30;;;13.90;99.90;;;;;;4844632;29;20483;-60
2024/04/03 12:55:54;;;;;;;0.30;0.30;;;13.90;99.90;;;;;;4843016;29;20241;-60
2024/04/03 12:58:20;;;;;;;0.30;0.20;;;14.00;99.90;;;;;;4844175;29;20485;-60
2024/04/03 13:00:45;;;;;;;0.30;0.30;;;14.00;99.90;;;;;;4844371;29;20422;-60
2024/04/03 13:03:11;;;;;;;0.30;0.30;;;14.10;99.90;;;;;;4858192;29;20378;-60
2024/04/03 13:05:37;;;;;;;0.30;0.30;;;14.20;99.90;;;;;;4843639;29;20181;-60
2024/04/03 13:08:04;;;;;;;0.30;0.30;;;14.30;99.90;;;;;;4842587;29;20227;-59
2024/04/03 13:10:32;;;;;;;0.30;0.20;;;14.40;99.90;;;;;;4843704;29;20425;-60
2024/04/03 13:13:00;;;;;;;0.30;0.30;;;14.40;99.90;;;;;;4843690;29;20933;-60
2024/04/03 13:15:26;;;;;;;0.30;0.30;;;14.40;99.90;;;;;;4843358;29;20418;-60
2024/04/03 13:17:52;;;;;;;0.30;0.30;;;14.30;99.90;;;;;;4843838;29;20565;-60
2024/04/03 13:20:18;;;;;;;0.30;0.30;;;14.20;99.90;;;;;;4843643;29;20219;-60
2024/04/03 13:22:43;;;;;;;2.47;1.03;;;14.20;99.90;;;;;;4843562;29;20562;-60
2024/04/03 13:25:09;;;;;;;0.40;0.40;;;14.10;99.90;;;;;;4843071;29;20188;-60
2024/04/03 13:27:35;;;;;;;0.30;0.30;;;14.10;99.90;;;;;;4843300;29;20209;-60
2024/04/03 13:30:02;;;;;;;0.30;0.30;;;14.10;99.90;;;;;;4843270;29;20240;-60
2024/04/03 13:32:28;;;;;;;0.30;0.30;;;14.10;99.90;;;;;;4843560;29;20419;-60
2024/04/03 13:34:53;;;;;;;0.30;0.30;;;14.10;99.90;;;;;;4843210;29;20762;-60
2024/04/03 13:37:19;;;;;;;0.30;0.30;;;14.10;99.90;;;;;;4843205;29;20280;-60
2024/04/03 13:39:45;;;;;;;0.30;0.30;;;14.20;99.90;;;;;;4843072;29;20174;-60
2024/04/03 13:42:10;;;;;;;0.30;0.30;;;14.10;99.90;;;;;;4842422;29;20683;-60
2024/04/03 13:44:36;;;;;;;0.30;0.30;;;14.00;99.90;;;;;;4842779;29;20180;-61
2024/04/03 13:47:01;;;;;;;0.30;0.30;;;14.00;99.90;;;;;;4842814;29;20247;-60
2024/04/03 13:49:28;;;;;;;0.30;0.30;;;13.90;99.90;;;;;;4842945;29;20598;-60
2024/04/03 13:51:54;;;;;;;0.50;0.50;;;13.90;99.90;;;;;;4842772;29;20585;-60
2024/04/03 13:54:19;;;;;;;0.30;0.30;;;13.90;99.90;;;;;;4842969;29;20509;-60
2024/04/03 13:56:46;;;;;;;0.30;0.30;;;13.80;99.90;;;;;;4842416;29;20263;-59
2024/04/03 13:59:12;;;;;;;0.30;0.30;;;13.70;99.90;;;;;;4842579;29;20629;-59
2024/04/03 14:01:37;;;;;;;0.30;0.30;;;13.50;99.90;;;;;;4842879;29;20397;-60
2024/04/03 14:04:03;;;;;;;0.30;0.30;;;13.50;99.90;;;;;;4842764;29;20173;-60
2024/04/03 14:06:29;;;;;;;0.30;0.30;;;13.50;99.90;;;;;;4842152;29;20190;-60
2024/04/03 14:08:55;;;;;;;0.30;0.30;;;13.40;99.90;;;;;;4842178;29;20910;-60
2024/04/03 14:11:25;;;;;;;0.30;0.30;;;13.40;99.90;;;;;;4842639;29;20185;-60
2024/04/03 14:13:51;;;;;;;0.33;0.33;;;13.30;99.90;;;;;;4842421;29;20267;-60
2024/04/03 14:16:18;;;;;;;0.30;0.30;;;13.20;99.90;;;;;;4842320;29;20429;-60
2024/04/03 14:18:45;;;;;;;0.30;0.30;;;13.20;99.90;;;;;;4841990;29;20543;-60
2024/04/03 14:21:11;;;;;;;0.30;0.30;;;13.10;99.90;;;;;;4842367;29;20418;-60
2024/04/03 14:23:37;;;;;;;0.67;0.67;;;13.10;99.90;;;;;;4842345;29;20397;-60
2024/04/03 14:26:04;;;;;;;0.30;0.30;;;13.10;99.90;;;;;;4842109;29;20601;-60
2024/04/03 14:28:30;;;;;;;0.30;0.30;;;13.20;99.90;;;;;;4842167;29;20220;-60
2024/04/03 14:30:56;;;;;;;0.30;0.30;;;13.20;99.90;;;;;;4842116;29;20418;-60
2024/04/03 14:33:22;;;;;;;0.30;0.30;;;13.20;99.90;;;;;;4842105;29;20437;-60
2024/04/03 14:35:49;;;;;;;0.30;0.30;;;13.20;99.90;;;;;;4841911;29;20848;-60
2024/04/03 14:38:15;;;;;;;0.30;0.30;;;13.20;99.90;;;;;;4841815;29;20532;-60
2024/04/03 14:40:41;;;;;;;0.30;0.30;;;13.20;99.90;;;;;;4841988;29;20486;-60
2024/04/03 14:43:07;;;;;;;0.37;0.37;;;13.20;99.90;;;;;;4842139;29;20708;-59
2024/04/03 14:45:36;;;;;;;0.30;0.30;;;13.20;99.90;;;;;;4841767;29;20177;-60
2024/04/03 14:48:03;;;;;;;0.30;0.30;;;13.10;99.90;;;;;;4841427;29;20473;-60
2024/04/03 14:50:30;;;;;;;0.30;0.30;;;13.10;99.90;;;;;;4841921;29;20412;-60
2024/04/03 14:52:56;;;;;;;0.30;0.30;;;13.20;99.90;;;;;;4841391;29;20431;-60
2024/04/03 14:55:24;;;;;;;0.30;0.30;;;13.30;99.90;;;;;;4841380;29;20493;-59
2024/04/03 14:57:51;;;;;;;0.30;0.30;;;13.30;99.90;;;;;;4841352;29;20598;-60
2024/04/03 15:00:17;;;;;;;0.30;0.30;;;13.30;99.90;;;;;;4840310;29;20936;-61
2024/04/03 15:02:43;;;;;;;0.33;0.33;;;13.30;99.90;;;;;;4841741;29;20392;-61
2024/04/03 15:05:09;;;;;;;0.30;0.30;;;13.30;99.90;;;;;;4841225;29;20417;-61
2024/04/03 15:07:34;;;;;;;0.30;0.30;;;13.30;99.90;;;;;;4841542;29;20209;-60
2024/04/03 15:10:00;;;;;;;0.30;0.30;;;13.30;99.90;;;;;;4841330;29;20431;-60
2024/04/03 15:12:27;;;;;;;0.30;0.30;;;13.20;99.90;;;;;;4841369;29;20205;-60
2024/04/03 15:14:52;;;;;;;0.30;0.30;;;13.20;99.90;;;;;;4855021;29;20213;-60
2024/04/03 15:17:26;;;;;;;0.30;0.30;;;13.10;99.90;;;;;;4841361;29;20533;-60
2024/04/03 15:19:52;;;;;;;0.30;0.30;;;13.10;99.90;;;;;;4841586;29;20173;-61
2024/04/03 15:22:21;;;;;;;0.30;0.30;;;13.10;99.90;;;;;;4841636;29;20402;-61
2024/04/03 15:24:51;;;;;;;0.30;0.30;;;13.10;99.90;;;;;;4841058;29;20439;-63
2024/04/03 15:27:17;;;;;;;0.30;0.30;;;13.10;99.90;;;;;;4840426;29;20453;-62
2024/04/03 15:29:44;;;;;;;0.30;0.30;;;13.10;99.90;;;;;;4841564;29;20475;-61
2024/04/03 15:32:11;;;;;;;0.33;0.33;;;13.10;99.90;;;;;;4841371;29;20414;-61
2024/04/03 15:34:40;;;;;;;0.30;0.30;;;13.00;99.90;;;;;;4855460;29;20430;-61
2024/04/03 15:37:08;;;;;;;0.30;0.30;;;13.00;99.90;;;;;;4841510;29;20461;-61
2024/04/03 15:39:34;;;;;;;0.30;0.30;;;13.00;99.90;;;;;;4841640;29;20892;-61
2024/04/03 15:42:00;;;;;;;0.30;0.30;;;12.90;99.90;;;;;;4841816;29;20422;-61
2024/04/03 15:44:32;;;;;;;0.30;0.30;;;12.90;99.90;;;;;;4841704;29;20414;-61
2024/04/03 15:46:58;;;;;;;0.30;0.30;;;12.70;99.90;;;;;;4841247;29;20412;-60
2024/04/03 15:49:23;;;;;;;0.40;0.40;;;12.70;99.90;;;;;;4841797;29;20404;-61
2024/04/03 15:51:49;;;;;;;0.30;0.30;;;12.60;99.90;;;;;;4841618;29;20173;-61
2024/04/03 15:54:16;;;;;;;0.30;0.30;;;12.50;99.90;;;;;;4841748;29;20217;-62
2024/04/03 15:56:43;;;;;;;0.53;0.53;;;12.50;99.90;;;;;;4841437;29;20193;-62
2024/04/03 15:59:10;;;;;;;0.30;0.30;;;12.40;99.90;;;;;;4841766;29;20461;-63
2024/04/03 16:01:35;;;;;;;0.30;0.30;;;12.40;99.90;;;;;;4840349;29;20503;-62
2024/04/03 16:04:02;;;;;;;0.30;0.30;;;12.40;99.90;;;;;;4841878;29;20426;-63
2024/04/03 16:06:28;;;;;;;0.40;0.40;;;12.40;99.90;;;;;;4844694;29;20184;-63
2024/04/03 16:08:58;;;;;;;0.30;0.30;;;12.50;99.90;;;;;;4844328;29;20450;-62
2024/04/03 16:11:24;;;;;;;0.30;0.30;;;12.50;99.90;;;;;;4844816;29;20410;-62
2024/04/03 16:13:50;;;;;;;0.30;0.30;;;12.40;99.90;;;;;;4844582;29;20501;-63
2024/04/03 16:16:16;;;;;;;0.30;0.30;;;12.40;99.90;;;;;;4844453;29;20719;-62
2024/04/03 16:18:42;;;;;;;0.30;0.30;;;12.40;99.90;;;;;;4844357;29;20519;-64
2024/04/03 16:21:08;;;;;;;0.30;0.30;;;12.30;99.90;;;;;;4844502;29;20252;-64
2024/04/03 16:23:33;;;;;;;0.30;0.30;;;12.30;99.90;;;;;;4844324;29;20280;-64
2024/04/03 16:26:02;;;;;;;0.30;0.30;;;12.40;99.90;;;;;;4844179;29;20793;-64
2024/04/03 16:28:28;;;;;;;0.33;0.33;;;12.40;99.90;;;;;;4855154;29;20207;-64
2024/04/03 16:30:53;;;;;;;0.40;0.40;;;12.50;99.90;;;;;;4851538;29;20415;-63
2024/04/03 16:33:19;;;;;;;0.30;0.30;;;12.50;99.90;;;;;;4851048;29;20188;-62
2024/04/03 16:35:45;;;;;;;0.30;0.30;;;12.50;99.90;;;;;;4861300;29;20236;-64
2024/04/03 16:38:14;;;;;;;0.30;0.30;;;12.60;99.90;;;;;;4825420;29;20247;-64
2024/04/03 16:40:40;;;;;;;0.30;0.30;;;12.70;99.90;;;;;;4828897;29;20264;-62
2024/04/03 16:43:06;;;;;;;0.30;0.23;;;12.70;99.90;;;;;;4825814;29;20484;-64
2024/04/03 16:45:32;;;;;;;0.30;0.30;;;12.70;99.90;;;;;;4832402;29;20424;-63
2024/04/03 16:47:57;;;;;;;0.30;0.30;;;12.80;99.90;;;;;;4854877;29;20480;-63
2024/04/03 16:50:23;;;;;;;0.40;0.40;;;12.90;99.90;;;;;;4844168;29;20185;-64
2024/04/03 16:52:49;;;;;;;0.30;0.30;;;12.90;99.90;;;;;;4844074;29;20188;-61
2024/04/03 16:55:14;;;;;;;0.30;0.30;;;12.90;99.90;;;;;;4843729;29;20487;-62
2024/04/03 16:57:40;;;;;;;0.40;0.40;;;12.90;99.90;;;;;;4854714;29;20204;-63